Time;durP1;ratioP1;P1;durP2;ratioP2;P2;SDS_P1;SDS_P2;PMS_P1;PMS_P2;Temp;Humidity;BMP_temperature;BMP_pressure;BME280_temperature;BME280_humidity;BME280_pressure;Samples;Min_cycle;Max_cycle;Signal;HPM_P1;HPM_P2
2022/12/19 00:01:19;;;;;;;7.35;0.60;;;;;;;11.93;100.00;98026.81;5034895;28;20103;-86
2022/12/19 00:03:47;;;;;;;3.42;0.57;;;;;;;11.90;100.00;98023.56;5027285;28;20140;-85
2022/12/19 00:06:13;;;;;;;4.22;0.73;;;;;;;11.94;100.00;98020.50;5045402;28;20033;-85
2022/12/19 00:08:41;;;;;;;2.60;0.50;;;;;;;11.95;100.00;98007.03;5002795;28;20374;-85
2022/12/19 00:11:09;;;;;;;3.88;0.50;;;;;;;11.94;100.00;98000.13;5025517;28;20029;-86
2022/12/19 00:13:35;;;;;;;3.50;0.40;;;;;;;11.94;100.00;98004.59;5034082;28;20116;-86
2022/12/19 00:16:07;;;;;;;4.05;0.50;;;;;;;11.97;100.00;97997.06;5008540;28;20067;-85
2022/12/19 00:18:35;;;;;;;4.25;0.75;;;;;;;11.95;100.00;97996.44;5030209;28;20036;-85
2022/12/19 00:21:03;;;;;;;3.90;0.50;;;;;;;11.96;100.00;97986.69;5000819;28;20697;-86
2022/12/19 00:23:31;;;;;;;3.17;0.40;;;;;;;12.00;100.00;97985.22;5029951;28;20048;-85
2022/12/19 00:26:31;;;;;;;3.97;0.57;;;;;;;11.99;100.00;97979.09;5037764;28;20512;-86
2022/12/19 00:28:59;;;;;;;4.75;0.50;;;;;;;11.99;100.00;97973.81;5014492;28;20025;-86
2022/12/19 00:31:28;;;;;;;6.95;0.65;;;;;;;12.03;100.00;97974.19;5030428;28;20033;-87
2022/12/19 00:33:55;;;;;;;5.50;0.70;;;;;;;11.99;100.00;97973.00;5019237;28;20034;-87
2022/12/19 00:36:23;;;;;;;3.30;0.70;;;;;;;12.00;100.00;97954.28;5032000;28;20508;-86
2022/12/19 00:38:50;;;;;;;4.90;0.70;;;;;;;12.02;100.00;97973.38;5026366;28;20034;-87
2022/12/19 00:41:21;;;;;;;8.27;1.20;;;;;;;12.03;100.00;97960.97;5029032;28;20491;-87
2022/12/19 00:43:54;;;;;;;7.40;0.85;;;;;;;12.06;100.00;97972.94;5013546;28;20509;-87
2022/12/19 00:46:21;;;;;;;3.08;0.70;;;;;;;12.02;100.00;97972.59;5003927;28;20037;-87
2022/12/19 00:48:48;;;;;;;8.13;1.33;;;;;;;12.03;100.00;97969.72;5031196;28;20091;-86
2022/12/19 00:51:20;;;;;;;12.38;1.27;;;;;;;12.04;100.00;97959.91;5014337;28;20383;-86
2022/12/19 00:53:48;;;;;;;9.32;1.25;;;;;;;12.02;100.00;97970.72;5043336;28;20033;-86
2022/12/19 00:56:20;;;;;;;7.45;1.40;;;;;;;12.03;100.00;97967.06;5037068;28;20037;-86
2022/12/19 00:58:46;;;;;;;6.68;0.80;;;;;;;12.01;100.00;97968.28;5027590;28;20045;-87
2022/12/19 01:01:15;;;;;;;6.68;0.90;;;;;;;12.04;100.00;97967.88;5027998;28;20042;-86
2022/12/19 01:03:42;;;;;;;6.07;1.00;;;;;;;12.00;100.00;97956.91;5012255;28;20030;-86
2022/12/19 01:06:08;;;;;;;1.60;0.60;;;;;;;11.99;100.00;97949.97;5029159;28;20030;-87
2022/12/19 01:08:34;;;;;;;6.50;0.75;;;;;;;11.99;100.00;97959.78;5000568;28;20042;-86
2022/12/19 01:11:01;;;;;;;6.22;0.80;;;;;;;11.99;100.00;97951.84;5007782;28;20026;-86
2022/12/19 01:13:30;;;;;;;3.13;0.85;;;;;;;12.00;100.00;97959.56;5013555;28;20091;-86
2022/12/19 01:16:00;;;;;;;6.45;1.20;;;;;;;12.02;100.00;97954.84;5030847;28;20362;-86
2022/12/19 01:18:28;;;;;;;6.63;1.08;;;;;;;12.03;100.00;97945.06;5038155;28;20413;-85
2022/12/19 01:20:54;;;;;;;7.35;0.70;;;;;;;12.05;100.00;97953.63;5030297;28;20041;-87
2022/12/19 01:23:20;;;;;;;3.17;0.63;;;;;;;12.07;100.00;97942.81;5029417;28;20591;-86
2022/12/19 01:25:52;;;;;;;4.28;0.60;;;;;;;12.12;100.00;97950.97;5011160;28;20037;-86
2022/12/19 01:28:18;;;;;;;4.60;0.63;;;;;;;12.11;100.00;97944.84;5029296;28;20030;-86
2022/12/19 01:30:44;;;;;;;4.05;0.85;;;;;;;12.10;100.00;97948.53;5029134;28;20036;-86
2022/12/19 01:33:13;;;;;;;8.43;1.10;;;;;;;12.12;100.00;97948.31;5031208;28;20029;-87
2022/12/19 01:35:40;;;;;;;7.70;0.93;;;;;;;12.12;100.00;97943.00;5022721;28;20092;-86
2022/12/19 01:38:05;;;;;;;8.07;1.13;;;;;;;12.14;100.00;97940.94;5038286;28;20117;-86
2022/12/19 01:40:32;;;;;;;7.43;1.00;;;;;;;12.14;100.00;97933.81;5009818;28;20041;-87
2022/12/19 01:42:59;;;;;;;5.68;0.90;;;;;;;12.15;100.00;97940.72;5029374;28;20032;-87
2022/12/19 01:45:30;;;;;;;6.18;0.77;;;;;;;12.19;100.00;97937.63;5027756;28;20036;-86
2022/12/19 01:48:12;;;;;;;4.65;0.63;;;;;;;12.18;100.00;97931.56;5024060;28;20116;-86
2022/12/19 01:50:45;;;;;;;2.92;0.40;;;;;;;12.14;100.00;97927.69;5008398;28;20037;-86
2022/12/19 01:53:13;;;;;;;3.10;0.55;;;;;;;12.15;100.00;97921.41;5026460;28;20040;-86
2022/12/19 01:55:39;;;;;;;5.40;0.63;;;;;;;12.15;100.00;97924.03;5023532;28;20804;-86
2022/12/19 01:58:07;;;;;;;5.25;0.60;;;;;;;12.15;100.00;97930.13;5011191;28;20029;-86
2022/12/19 02:00:33;;;;;;;4.15;0.73;;;;;;;12.17;100.00;97924.63;5045647;28;20041;-86
2022/12/19 02:03:14;;;;;;;3.35;0.40;;;;;;;12.15;100.00;97919.53;5025528;28;20065;-87
2022/12/19 02:05:44;;;;;;;1.67;0.40;;;;;;;12.14;100.00;97917.09;5030208;28;20052;-87
2022/12/19 02:08:10;;;;;;;2.55;0.52;;;;;;;12.13;100.00;97916.31;5027391;28;20037;-86
2022/12/19 02:10:36;;;;;;;2.58;0.22;;;;;;;12.13;100.00;97904.91;5046053;28;20405;-86
2022/12/19 02:13:02;;;;;;;3.15;0.57;;;;;;;12.18;100.00;97907.72;5044794;28;20026;-86
2022/12/19 02:15:37;;;;;;;4.85;0.50;;;;;;;12.20;100.00;97918.88;5001595;28;20061;-87
2022/12/19 02:18:19;;;;;;;4.03;0.52;;;;;;;12.21;100.00;97912.56;5026113;28;20041;-86
2022/12/19 02:21:15;;;;;;;6.60;0.95;;;;;;;12.22;100.00;97908.88;5039162;28;20079;-86
2022/12/19 02:24:03;;;;;;;6.32;1.27;;;;;;;12.18;100.00;97902.41;5006011;28;20057;-86
2022/12/19 02:26:38;;;;;;;3.63;0.68;;;;;;;12.25;100.00;97912.94;5028270;28;20049;-86
2022/12/19 02:29:28;;;;;;;4.03;0.50;;;;;;;12.23;100.00;97902.56;5029726;28;20034;-86
2022/12/19 02:32:02;;;;;;;7.68;1.15;;;;;;;12.26;100.00;97909.28;5023101;28;20061;-86
2022/12/19 02:34:46;;;;;;;7.03;1.20;;;;;;;12.25;100.00;97905.81;5042570;28;20091;-86
2022/12/19 02:37:46;;;;;;;9.73;0.98;;;;;;;12.25;100.00;97900.50;5021965;28;20083;-86
2022/12/19 02:40:18;;;;;;;7.80;1.13;;;;;;;12.25;100.00;97900.50;5028896;28;20478;-86
2022/12/19 02:42:50;;;;;;;4.90;0.80;;;;;;;12.26;100.00;97911.94;5047022;28;20116;-86
2022/12/19 02:45:19;;;;;;;9.32;0.90;;;;;;;12.26;100.00;97898.69;5019918;28;20060;-85
2022/12/19 02:47:46;;;;;;;6.25;0.90;;;;;;;12.26;100.00;97909.28;5025584;28;20049;-86
2022/12/19 02:50:12;;;;;;;11.45;1.33;;;;;;;12.25;100.00;97905.81;5033772;28;20036;-86
2022/12/19 02:52:38;;;;;;;7.78;1.17;;;;;;;12.25;100.00;97892.56;5032285;28;20041;-86
2022/12/19 02:55:13;;;;;;;6.30;0.98;;;;;;;12.28;100.00;97892.13;5030696;28;20097;-86
2022/12/19 02:58:01;;;;;;;12.73;1.55;;;;;;;12.27;100.00;97892.34;5033324;28;20084;-86
2022/12/19 03:00:27;;;;;;;11.95;2.33;;;;;;;12.26;100.00;97898.69;4969938;28;20505;-83
2022/12/19 03:03:13;;;;;;;14.57;1.55;;;;;;;12.25;100.00;97897.88;5027943;28;20103;-86
2022/12/19 03:05:58;;;;;;;7.60;1.17;;;;;;;12.25;100.00;97895.22;5025628;28;20029;-86
2022/12/19 03:08:41;;;;;;;6.95;1.48;;;;;;;12.26;100.00;97894.16;5005816;28;20038;-86
2022/12/19 03:11:14;;;;;;;9.95;1.20;;;;;;;12.28;100.00;97892.13;5036342;28;20095;-85
2022/12/19 03:14:01;;;;;;;6.70;1.10;;;;;;;12.29;100.00;97887.66;5026000;28;20037;-85
2022/12/19 03:16:27;;;;;;;9.13;0.98;;;;;;;12.25;100.00;97883.81;5027525;28;20045;-87
2022/12/19 03:18:54;;;;;;;8.50;1.65;;;;;;;12.30;100.00;97883.97;4988757;28;20029;-87
2022/12/19 03:21:28;;;;;;;10.55;1.33;;;;;;;12.32;100.00;97887.22;5034791;28;20056;-85
2022/12/19 03:23:56;;;;;;;10.02;1.10;;;;;;;12.31;100.00;97882.91;5045272;28;20068;-86
2022/12/19 03:26:27;;;;;;;7.43;1.23;;;;;;;12.32;100.00;97878.44;5015356;28;20033;-86
2022/12/19 03:29:13;;;;;;;8.75;0.88;;;;;;;12.30;100.00;97885.78;5044247;28;20067;-85
2022/12/19 03:31:41;;;;;;;4.32;0.95;;;;;;;12.32;100.00;97881.09;5018023;28;20037;-86
2022/12/19 03:34:17;;;;;;;9.38;1.35;;;;;;;12.34;100.00;97861.28;5028261;28;20035;-84
2022/12/19 03:36:47;;;;;;;10.98;1.80;;;;;;;12.33;100.00;97862.34;5025365;28;20026;-86
2022/12/19 03:39:15;;;;;;;13.18;1.85;;;;;;;12.32;100.00;97862.56;5022828;28;20076;-86
2022/12/19 03:44:29;;;;;;;;;;;;;;;12.24;100.00;97856.53;5047561;28;20104;-86
2022/12/19 03:47:16;;;;;;;18.38;2.67;;;;;;;12.32;100.00;97842.19;5015943;28;20369;-86
2022/12/19 03:49:42;;;;;;;12.68;1.70;;;;;;;12.27;100.00;97836.72;5026049;28;20091;-85
2022/12/19 03:52:25;;;;;;;13.50;2.08;;;;;;;12.30;100.00;97840.75;5041475;28;20834;-86
2022/12/19 03:55:11;;;;;;;12.27;1.90;;;;;;;12.26;100.00;97824.53;5039896;28;20044;-85
2022/12/19 03:57:44;;;;;;;13.07;1.77;;;;;;;12.27;100.00;97837.53;5030601;28;20509;-85
2022/12/19 04:00:13;;;;;;;11.13;1.77;;;;;;;12.26;100.00;97830.63;5031208;28;20037;-85
2022/12/19 04:02:45;;;;;;;17.17;2.08;;;;;;;12.26;100.00;97830.63;5029609;28;20041;-85
2022/12/19 04:05:19;;;;;;;10.60;1.30;;;;;;;12.24;100.00;97832.69;5045621;28;20089;-86
2022/12/19 04:07:46;;;;;;;13.63;1.98;;;;;;;12.22;100.00;97829.44;5025184;28;20112;-86
2022/12/19 04:10:16;;;;;;;9.57;1.20;;;;;;;12.24;100.00;97818.63;5012428;28;20037;-85
2022/12/19 04:12:49;;;;;;;7.18;1.40;;;;;;;12.23;100.00;97819.66;5024769;28;20040;-85
2022/12/19 04:15:16;;;;;;;8.15;1.67;;;;;;;12.21;100.00;97813.78;5026884;28;20117;-86
2022/12/19 04:18:04;;;;;;;12.40;1.65;;;;;;;12.20;100.00;97820.91;5005060;28;20770;-85
2022/12/19 04:20:31;;;;;;;10.05;1.45;;;;;;;12.19;100.00;97814.00;5036209;28;20041;-86
2022/12/19 04:23:07;;;;;;;7.95;1.38;;;;;;;12.22;100.00;97812.75;5032283;28;20029;-86
2022/12/19 04:25:37;;;;;;;12.13;1.67;;;;;;;12.19;100.00;97815.81;5028581;28;20038;-87
2022/12/19 04:28:08;;;;;;;7.07;1.13;;;;;;;12.21;100.00;97819.88;5024898;28;20037;-86
2022/12/19 04:30:37;;;;;;;15.02;1.20;;;;;;;12.16;100.00;97817.09;5028185;28;20041;-88
2022/12/19 04:33:03;;;;;;;13.30;1.33;;;;;;;12.17;100.00;97813.41;5028599;28;20505;-87
2022/12/19 04:35:29;;;;;;;7.15;1.50;;;;;;;12.16;100.00;97809.13;5031084;28;20182;-86
2022/12/19 04:37:55;;;;;;;5.40;1.50;;;;;;;12.14;100.00;97813.84;5010484;28;20108;-86
2022/12/19 04:40:21;;;;;;;7.40;1.23;;;;;;;12.17;100.00;97820.56;5027223;28;20029;-87
2022/12/19 04:42:47;;;;;;;8.88;1.42;;;;;;;12.18;100.00;97806.28;5024609;28;20041;-86
2022/12/19 04:45:12;;;;;;;10.75;1.42;;;;;;;12.17;100.00;97800.16;5045927;28;20037;-86
2022/12/19 04:47:44;;;;;;;11.70;2.08;;;;;;;12.24;100.00;97808.03;5038662;28;20039;-88
2022/12/19 04:50:10;;;;;;;11.43;1.30;;;;;;;12.25;100.00;97802.53;5038794;28;20041;-87
2022/12/19 04:52:36;;;;;;;11.70;1.45;;;;;;;12.24;100.00;97802.75;5004551;28;20045;-87
2022/12/19 04:55:02;;;;;;;11.13;1.65;;;;;;;12.23;100.00;97783.38;5009862;28;20486;-86
2022/12/19 04:57:29;;;;;;;10.35;1.75;;;;;;;12.25;100.00;97799.06;5024617;28;20489;-87
2022/12/19 04:59:55;;;;;;;12.20;1.85;;;;;;;12.23;100.00;97801.91;5027505;28;20453;-87
2022/12/19 05:02:21;;;;;;;12.27;1.70;;;;;;;12.23;100.00;97791.34;5028998;28;20061;-86
2022/12/19 05:04:46;;;;;;;9.57;1.80;;;;;;;12.25;100.00;97783.97;5031184;28;20029;-86
2022/12/19 05:07:12;;;;;;;11.23;1.40;;;;;;;12.24;100.00;97792.97;5027297;28;20048;-87
2022/12/19 05:09:38;;;;;;;10.07;1.35;;;;;;;12.19;100.00;97779.56;5031288;28;20131;-87
2022/12/19 05:12:05;;;;;;;10.10;1.80;;;;;;;12.21;100.00;97792.59;5013069;28;20033;-87
2022/12/19 05:14:32;;;;;;;14.70;1.65;;;;;;;12.20;100.00;97773.22;5028653;28;20037;-86
2022/12/19 05:16:57;;;;;;;11.98;1.83;;;;;;;12.19;100.00;97778.75;5044824;28;20025;-86
2022/12/19 05:19:23;;;;;;;15.38;2.53;;;;;;;12.19;100.00;97782.22;5048827;28;20769;-87
2022/12/19 05:21:49;;;;;;;13.23;1.73;;;;;;;12.17;100.00;97781.63;5008307;28;20053;-87
2022/12/19 05:24:15;;;;;;;12.60;1.73;;;;;;;12.15;100.00;97775.75;5020866;28;20036;-87
2022/12/19 05:26:41;;;;;;;10.60;1.30;;;;;;;12.16;100.00;97780.00;5020684;28;20033;-87
2022/12/19 05:29:07;;;;;;;9.88;1.77;;;;;;;12.19;100.00;97768.16;5041095;28;20026;-87
2022/12/19 05:31:33;;;;;;;12.15;1.75;;;;;;;12.14;100.00;97774.13;5027300;28;20026;-87
2022/12/19 05:33:59;;;;;;;5.38;1.20;;;;;;;12.17;100.00;97773.69;5029642;28;20044;-87
2022/12/19 05:36:24;;;;;;;7.95;1.20;;;;;;;12.21;100.00;97761.63;5007734;28;20124;-86
2022/12/19 05:38:50;;;;;;;6.88;0.80;;;;;;;12.22;100.00;97771.19;5041043;28;20045;-86
2022/12/19 05:41:19;;;;;;;7.75;0.73;;;;;;;12.19;100.00;97760.22;5013103;28;20072;-87
2022/12/19 05:43:50;;;;;;;7.53;1.05;;;;;;;12.19;100.00;97752.28;5034675;28;20029;-86
2022/12/19 05:46:16;;;;;;;10.10;1.35;;;;;;;12.19;100.00;97754.91;5013301;28;20044;-86
2022/12/19 05:48:42;;;;;;;5.30;0.65;;;;;;;12.16;100.00;97732.34;5045395;28;20394;-86
2022/12/19 05:51:08;;;;;;;3.45;0.85;;;;;;;12.19;100.00;97739.03;5027547;28;20037;-86
2022/12/19 05:53:35;;;;;;;3.92;0.52;;;;;;;12.20;100.00;97727.44;5013567;28;20037;-86
2022/12/19 05:56:05;;;;;;;2.03;0.55;;;;;;;12.23;100.00;97738.38;5034176;28;20035;-86
2022/12/19 05:58:32;;;;;;;4.05;0.40;;;;;;;12.22;100.00;97734.09;5044662;28;20048;-86
2022/12/19 06:01:06;;;;;;;2.85;0.40;;;;;;;12.28;100.00;97714.69;5026170;28;20183;-85
2022/12/19 06:03:32;;;;;;;2.30;0.38;;;;;;;12.25;100.00;97728.38;5023877;28;20034;-86
2022/12/19 06:06:02;;;;;;;2.22;0.30;;;;;;;12.28;100.00;97727.91;5023524;28;20037;-86
2022/12/19 06:08:28;;;;;;;0.77;0.32;;;;;;;12.28;100.00;97730.56;5013717;28;20036;-86
2022/12/19 06:10:54;;;;;;;1.48;0.20;;;;;;;12.28;100.00;97713.84;5011174;28;20033;-87
2022/12/19 06:13:20;;;;;;;1.48;0.30;;;;;;;12.28;100.00;97719.16;5043176;28;20028;-87
2022/12/19 06:15:45;;;;;;;3.75;0.60;;;;;;;12.28;100.00;97729.75;4986366;28;20037;-85
2022/12/19 06:18:11;;;;;;;2.90;0.35;;;;;;;12.27;100.00;97721.03;5027491;28;20040;-87
2022/12/19 06:20:37;;;;;;;4.22;0.40;;;;;;;12.27;100.00;97725.50;5010544;28;20398;-87
2022/12/19 06:23:03;;;;;;;2.42;0.38;;;;;;;12.28;100.00;97729.75;5010723;28;20025;-87
2022/12/19 06:25:28;;;;;;;4.20;0.43;;;;;;;12.28;100.00;97722.63;5027531;28;20042;-87
2022/12/19 06:27:54;;;;;;;3.20;0.50;;;;;;;12.32;100.00;97716.88;5045679;28;20551;-86
2022/12/19 06:30:20;;;;;;;2.60;0.40;;;;;;;12.30;100.00;97713.63;5009533;28;20397;-87
2022/12/19 06:32:45;;;;;;;5.50;0.75;;;;;;;12.31;100.00;97724.00;5007838;28;20029;-85
2022/12/19 06:35:11;;;;;;;3.88;0.32;;;;;;;12.34;100.00;97707.66;5008032;28;20036;-86
2022/12/19 06:37:37;;;;;;;2.88;0.40;;;;;;;12.35;100.00;97692.59;5018972;28;20029;-86
2022/12/19 06:40:03;;;;;;;4.50;0.52;;;;;;;12.38;100.00;97692.97;5039534;28;20064;-86
2022/12/19 06:42:29;;;;;;;4.93;0.82;;;;;;;12.39;100.00;97701.72;5025669;28;20033;-86
2022/12/19 06:44:55;;;;;;;5.18;0.90;;;;;;;12.40;100.00;97706.81;5026760;28;20496;-87
2022/12/19 06:47:21;;;;;;;5.95;0.82;;;;;;;12.40;100.00;97692.75;5041204;28;20036;-87
2022/12/19 06:49:48;;;;;;;5.68;0.70;;;;;;;12.39;100.00;97693.78;5007889;28;20037;-86
2022/12/19 06:52:15;;;;;;;6.00;0.70;;;;;;;12.37;100.00;97701.13;5024165;28;20437;-87
2022/12/19 06:54:41;;;;;;;4.53;0.93;;;;;;;12.37;100.00;97695.84;5032502;28;20032;-87
2022/12/19 06:57:07;;;;;;;4.00;0.95;;;;;;;12.37;100.00;97707.25;5026525;28;20037;-86
2022/12/19 06:59:33;;;;;;;4.50;0.70;;;;;;;12.36;100.00;97704.81;5027695;28;20033;-86
2022/12/19 07:02:08;;;;;;;3.90;0.70;;;;;;;12.37;100.00;97672.00;5019300;28;20107;-86
2022/12/19 07:04:39;;;;;;;4.35;1.17;;;;;;;12.41;100.00;97694.34;5025835;28;20047;-88
2022/12/19 07:07:06;;;;;;;7.35;1.00;;;;;;;12.38;100.00;97678.91;5027457;28;20029;-87
2022/12/19 07:09:33;;;;;;;5.78;0.98;;;;;;;12.40;100.00;97690.91;5027789;28;20038;-86
2022/12/19 07:11:59;;;;;;;5.15;0.70;;;;;;;12.40;100.00;97696.19;5026538;28;20057;-87
2022/12/19 07:14:26;;;;;;;5.80;1.17;;;;;;;12.40;100.00;97688.25;5006211;28;20037;-87
2022/12/19 07:16:54;;;;;;;6.15;1.10;;;;;;;12.37;100.00;97682.59;5034439;28;20030;-87
2022/12/19 07:19:21;;;;;;;7.43;1.25;;;;;;;12.37;100.00;97682.59;5040747;28;20029;-87
2022/12/19 07:21:47;;;;;;;7.63;1.23;;;;;;;12.36;100.00;97678.34;5024480;28;20112;-87
2022/12/19 07:24:14;;;;;;;6.53;0.80;;;;;;;12.33;100.00;97671.63;5024950;28;20037;-87
2022/12/19 07:26:42;;;;;;;4.22;0.82;;;;;;;12.35;100.00;97666.09;5022893;28;20037;-87
2022/12/19 07:29:08;;;;;;;4.65;0.95;;;;;;;12.36;100.00;97665.09;5027191;28;20037;-86
2022/12/19 07:31:34;;;;;;;5.88;0.93;;;;;;;12.33;100.00;97666.34;5042664;28;20646;-81
2022/12/19 07:34:01;;;;;;;2.33;0.75;;;;;;;12.33;100.00;97645.16;5023771;28;20030;-81
2022/12/19 07:36:26;;;;;;;4.53;0.82;;;;;;;12.33;100.00;97646.97;5023664;28;20044;-86
2022/12/19 07:38:52;;;;;;;2.72;0.55;;;;;;;12.32;100.00;97637.41;5026710;28;20030;-87
2022/12/19 07:41:18;;;;;;;6.13;0.55;;;;;;;12.37;100.00;97651.63;5024794;28;20111;-85
2022/12/19 07:43:46;;;;;;;6.57;0.98;;;;;;;12.39;100.00;97654.06;5025997;28;20440;-86
2022/12/19 07:46:12;;;;;;;7.32;1.00;;;;;;;12.37;100.00;97642.88;5039599;28;20033;-87
2022/12/19 07:48:38;;;;;;;7.97;1.00;;;;;;;12.39;100.00;97646.09;5022438;28;20029;-87
2022/12/19 07:51:04;;;;;;;6.88;1.05;;;;;;;12.41;100.00;97649.31;5037064;28;20048;-86
2022/12/19 07:53:30;;;;;;;8.32;1.25;;;;;;;12.38;100.00;97640.00;5012955;28;20055;-87
2022/12/19 07:55:57;;;;;;;12.73;2.03;;;;;;;12.39;100.00;97640.81;5033993;28;20045;-87
2022/12/19 07:58:22;;;;;;;5.72;1.45;;;;;;;12.37;100.00;97640.22;5023233;28;20549;-86
2022/12/19 08:00:56;;;;;;;10.63;2.17;;;;;;;12.37;100.00;97648.16;5015358;28;20046;-86
2022/12/19 08:03:23;;;;;;;11.50;1.85;;;;;;;12.36;100.00;97641.25;5025079;28;20573;-87
2022/12/19 08:05:49;;;;;;;14.48;2.85;;;;;;;12.34;100.00;97643.31;5016598;28;20226;-86
2022/12/19 08:08:15;;;;;;;14.88;2.17;;;;;;;12.38;100.00;97652.41;5022349;28;20048;-86
2022/12/19 08:10:41;;;;;;;19.83;3.03;;;;;;;12.37;100.00;97651.63;5022644;28;20041;-87
2022/12/19 08:13:06;;;;;;;13.07;2.50;;;;;;;12.33;100.00;97646.97;5025707;28;20505;-86
2022/12/19 08:15:32;;;;;;;12.45;2.55;;;;;;;12.35;100.00;97639.63;5012539;28;20152;-86
2022/12/19 08:17:58;;;;;;;17.83;2.47;;;;;;;12.34;100.00;97656.56;5041737;28;20401;-87
2022/12/19 08:20:24;;;;;;;18.58;3.08;;;;;;;12.36;100.00;97652.63;5020506;28;20052;-86
2022/12/19 08:22:50;;;;;;;16.08;1.95;;;;;;;12.33;100.00;97650.44;5007610;28;20022;-87
2022/12/19 08:25:16;;;;;;;12.27;2.15;;;;;;;12.36;100.00;97650.00;5027175;28;20041;-87
2022/12/19 08:27:41;;;;;;;15.23;2.47;;;;;;;12.36;100.00;97639.41;5022805;28;20453;-87
2022/12/19 08:30:08;;;;;;;15.98;2.90;;;;;;;12.36;100.00;97620.06;5027262;28;20640;-87
2022/12/19 08:32:34;;;;;;;14.82;2.50;;;;;;;12.35;100.00;97629.84;5030192;28;20502;-85
2022/12/19 08:35:00;;;;;;;11.52;2.00;;;;;;;12.35;100.00;97636.97;5025399;28;20061;-87
2022/12/19 08:37:26;;;;;;;14.27;2.30;;;;;;;12.38;100.00;97625.94;5031929;28;20083;-87
2022/12/19 08:39:52;;;;;;;15.07;2.45;;;;;;;12.39;100.00;97627.56;5042221;28;20583;-86
2022/12/19 08:42:18;;;;;;;12.98;2.30;;;;;;;12.39;100.00;97638.94;5030729;28;20215;-86
2022/12/19 08:44:44;;;;;;;13.00;2.13;;;;;;;12.39;100.00;97630.22;5042364;28;20374;-87
2022/12/19 08:47:09;;;;;;;11.07;1.73;;;;;;;12.37;100.00;97629.63;5038900;28;20390;-87
2022/12/19 08:49:35;;;;;;;6.75;1.63;;;;;;;12.37;100.00;97614.53;5009301;28;20044;-87
2022/12/19 08:52:01;;;;;;;11.48;1.77;;;;;;;12.35;100.00;97615.78;5021062;28;20481;-86
2022/12/19 08:54:27;;;;;;;10.13;1.63;;;;;;;12.33;100.00;97615.19;5022675;28;20548;-86
2022/12/19 08:56:53;;;;;;;17.42;2.08;;;;;;;12.32;100.00;97614.41;5006813;28;20045;-87
2022/12/19 08:59:19;;;;;;;10.30;1.73;;;;;;;12.30;100.00;97607.69;5023307;28;20104;-88
2022/12/19 09:01:45;;;;;;;10.65;1.40;;;;;;;12.27;100.00;97616.91;5028810;28;20053;-87
2022/12/19 09:04:10;;;;;;;11.50;1.63;;;;;;;12.27;100.00;97620.38;5029197;28;20065;-88
2022/12/19 09:06:37;;;;;;;9.43;1.70;;;;;;;12.23;100.00;97600.66;5034460;28;20033;-82
2022/12/19 09:09:04;;;;;;;9.82;1.05;;;;;;;12.22;100.00;97612.28;5042274;28;20045;-80
2022/12/19 09:11:30;;;;;;;7.47;1.30;;;;;;;12.21;100.00;97617.81;5024336;28;20026;-88
2022/12/19 09:13:56;;;;;;;7.55;1.30;;;;;;;12.20;100.00;97614.34;5042485;28;20040;-87
2022/12/19 09:16:24;;;;;;;5.50;1.08;;;;;;;12.15;100.00;97598.34;5026268;28;20038;-88
2022/12/19 09:18:52;;;;;;;8.80;1.80;;;;;;;12.14;100.00;97599.38;5028743;28;20025;-87
2022/12/19 09:21:22;;;;;;;8.18;1.75;;;;;;;12.13;100.00;97608.34;5040419;28;20128;-88
2022/12/19 09:23:51;;;;;;;11.30;1.95;;;;;;;12.09;100.00;97597.41;5012520;28;20029;-87
2022/12/19 09:26:17;;;;;;;12.50;2.08;;;;;;;12.08;100.00;97608.22;5024189;28;20083;-87
2022/12/19 09:28:45;;;;;;;19.48;3.70;;;;;;;12.09;100.00;97599.25;5029613;28;20482;-87
2022/12/19 09:31:14;;;;;;;15.43;2.58;;;;;;;12.06;100.00;97597.00;5021665;28;20124;-87
2022/12/19 09:33:41;;;;;;;27.52;3.17;;;;;;;12.08;100.00;97593.16;5040489;28;20087;-90
2022/12/19 09:36:15;;;;;;;20.83;3.28;;;;;;;12.07;100.00;97586.19;5021897;28;20022;-87
2022/12/19 09:38:41;;;;;;;24.92;2.67;;;;;;;12.02;100.00;97578.13;5008688;28;20694;-89
2022/12/19 09:42:01;;;;;;;18.42;2.55;;;;;;;12.06;100.00;97597.00;5034566;28;20044;-87
2022/12/19 09:44:47;;;;;;;19.70;3.42;;;;;;;12.06;100.00;97584.56;5002756;28;20094;-86
2022/12/19 09:47:22;;;;;;;22.70;3.40;;;;;;;12.09;100.00;97583.38;5022653;28;20048;-90
2022/12/19 09:49:48;;;;;;;21.30;3.03;;;;;;;12.08;100.00;97571.16;5023453;28;20868;-89
2022/12/19 09:52:37;;;;;;;21.35;3.25;;;;;;;12.11;100.00;97573.34;5011489;28;20026;-89
2022/12/19 09:55:38;;;;;;;14.75;2.47;;;;;;;12.12;100.00;97582.91;5024556;28;20030;-90
2022/12/19 09:58:29;;;;;;;16.88;3.15;;;;;;;12.11;100.00;97576.81;4996914;28;20452;-89
2022/12/19 10:00:57;;;;;;;23.73;3.33;;;;;;;12.13;100.00;97581.88;5008484;28;20494;-90
2022/12/19 10:03:48;;;;;;;15.77;2.13;;;;;;;12.15;100.00;97572.66;5014060;28;20044;-90
2022/12/19 10:06:22;;;;;;;11.07;1.30;;;;;;;12.12;100.00;97559.88;5018552;28;20428;-87
2022/12/19 10:08:50;;;;;;;10.88;1.90;;;;;;;12.12;100.00;97559.09;5032381;28;20394;-88
2022/12/19 10:11:15;;;;;;;5.93;1.27;;;;;;;12.10;100.00;97572.56;5023881;28;20037;-89
2022/12/19 10:14:06;;;;;;;10.45;1.70;;;;;;;12.17;100.00;97583.03;5017946;28;20041;-90
2022/12/19 10:16:50;;;;;;;3.13;0.77;;;;;;;12.15;100.00;97580.59;5014824;28;20038;-89
2022/12/19 10:19:54;;;;;;;4.68;0.32;;;;;;;12.13;100.00;97584.53;5029064;28;20033;-90
2022/12/19 10:22:48;;;;;;;2.45;0.50;;;;;;;12.15;100.00;97585.13;5012120;28;20041;-89
2022/12/19 10:25:33;;;;;;;4.90;0.60;;;;;;;12.19;100.00;97596.84;5007842;28;20056;-89
2022/12/19 10:28:04;;;;;;;3.00;0.28;;;;;;;12.21;100.00;97593.97;5027035;28;20077;-88
2022/12/19 10:30:37;;;;;;;1.55;0.30;;;;;;;12.22;100.00;97600.88;5020641;28;20042;-88
2022/12/19 10:33:09;;;;;;;2.50;0.57;;;;;;;12.24;100.00;97606.78;5032234;28;20018;-89
2022/12/19 10:35:44;;;;;;;1.58;0.30;;;;;;;12.23;100.00;97611.25;5023521;28;20030;-89
2022/12/19 10:38:10;;;;;;;3.28;0.40;;;;;;;12.21;100.00;97605.41;5023015;28;20033;-89
2022/12/19 10:41:03;;;;;;;6.13;0.50;;;;;;;12.24;100.00;97597.00;5026957;28;20517;-90
2022/12/19 10:43:48;;;;;;;2.00;0.40;;;;;;;12.24;100.00;97606.78;5021959;28;21058;-88
2022/12/19 10:46:36;;;;;;;0.73;0.30;;;;;;;12.23;100.00;97608.59;5021217;28;20041;-89
2022/12/19 10:49:25;;;;;;;3.45;0.40;;;;;;;12.23;100.00;97613.13;5026224;28;20025;-88
2022/12/19 10:51:54;;;;;;;1.17;0.38;;;;;;;12.24;100.00;97617.38;4985548;28;20064;-88
2022/12/19 10:54:22;;;;;;;2.47;0.40;;;;;;;12.21;100.00;97617.81;5025159;28;20037;-88
2022/12/19 10:56:48;;;;;;;3.88;0.68;;;;;;;12.20;100.00;97616.22;5034400;28;20567;-88
2022/12/19 10:59:19;;;;;;;4.28;2.10;;;;;;;12.21;100.00;97620.47;5026577;28;20114;-89
2022/12/19 11:01:47;;;;;;;3.00;1.48;;;;;;;12.18;100.00;97616.44;5020773;28;20490;-89
2022/12/19 11:04:34;;;;;;;5.55;3.33;;;;;;;12.19;100.00;97606.63;5021842;28;20030;-89
2022/12/19 11:07:03;;;;;;;3.55;1.63;;;;;;;12.21;100.00;97599.28;5026217;28;20051;-88
2022/12/19 11:09:38;;;;;;;2.47;0.70;;;;;;;12.20;100.00;97614.34;5016228;28;20046;-87
2022/12/19 11:12:07;;;;;;;2.72;0.70;;;;;;;12.19;100.00;97612.75;5030905;28;20421;-88
2022/12/19 11:14:35;;;;;;;3.92;0.88;;;;;;;12.21;100.00;97625.75;4998927;28;20045;-87
2022/12/19 11:17:02;;;;;;;3.75;1.75;;;;;;;12.24;100.00;97627.97;5020303;28;20049;-88
2022/12/19 11:19:34;;;;;;;4.53;1.95;;;;;;;12.31;100.00;97611.97;5009536;28;20079;-88
2022/12/19 11:22:05;;;;;;;7.05;1.02;;;;;;;12.35;100.00;97631.66;5025322;28;20430;-87
2022/12/19 11:24:39;;;;;;;3.28;1.33;;;;;;;12.36;100.00;97623.50;5024138;28;20033;-87
2022/12/19 11:27:40;;;;;;;3.67;0.50;;;;;;;12.37;100.00;97626.97;5011009;28;20128;-88
2022/12/19 11:30:19;;;;;;;4.20;0.93;;;;;;;12.39;100.00;97635.50;5020973;28;20037;-88
2022/12/19 11:32:47;;;;;;;4.20;1.05;;;;;;;12.38;100.00;97625.94;5008591;28;20041;-88
2022/12/19 11:35:23;;;;;;;5.93;1.90;;;;;;;12.38;100.00;97633.88;5008688;28;20124;-88
2022/12/19 11:37:58;;;;;;;4.28;1.52;;;;;;;12.40;100.00;97632.63;5016942;28;20026;-89
2022/12/19 11:40:31;;;;;;;3.03;0.90;;;;;;;12.41;100.00;97638.72;5028261;28;20057;-89